sensor_id;sensor_type;location;lat;lon;timestamp;P1;durP1;ratioP1;P2;durP2;ratioP2
31482;SDS011;18103;52.246;8.052;2022-09-09T00:04:18;4.43;;;1.10;;
31482;SDS011;18103;52.246;8.052;2022-09-09T00:09:39;4.97;;;1.00;;
31482;SDS011;18103;52.246;8.052;2022-09-09T00:12:11;5.20;;;1.00;;
31482;SDS011;18103;52.246;8.052;2022-09-09T00:14:47;2.63;;;1.07;;
31482;SDS011;18103;52.246;8.052;2022-09-09T00:19:49;4.53;;;1.27;;
31482;SDS011;18103;52.246;8.052;2022-09-09T00:22:27;3.80;;;1.03;;
31482;SDS011;18103;52.246;8.052;2022-09-09T00:25:11;10.37;;;1.73;;
31482;SDS011;18103;52.246;8.052;2022-09-09T00:27:50;5.57;;;1.03;;
31482;SDS011;18103;52.246;8.052;2022-09-09T00:30:20;4.17;;;0.90;;
31482;SDS011;18103;52.246;8.052;2022-09-09T00:32:50;6.27;;;1.50;;
31482;SDS011;18103;52.246;8.052;2022-09-09T00:35:24;3.30;;;1.13;;
31482;SDS011;18103;52.246;8.052;2022-09-09T00:37:54;2.40;;;0.90;;
31482;SDS011;18103;52.246;8.052;2022-09-09T00:43:03;7.67;;;1.33;;
31482;SDS011;18103;52.246;8.052;2022-09-09T00:49:00;2.40;;;1.10;;
31482;SDS011;18103;52.246;8.052;2022-09-09T00:54:50;2.27;;;1.10;;
31482;SDS011;18103;52.246;8.052;2022-09-09T00:57:30;2.83;;;1.17;;
31482;SDS011;18103;52.246;8.052;2022-09-09T01:00:16;1.73;;;1.20;;
31482;SDS011;18103;52.246;8.052;2022-09-09T01:02:54;1.27;;;0.87;;
31482;SDS011;18103;52.246;8.052;2022-09-09T01:05:27;3.00;;;1.57;;
31482;SDS011;18103;52.246;8.052;2022-09-09T01:08:01;2.97;;;0.97;;
31482;SDS011;18103;52.246;8.052;2022-09-09T01:13:25;4.00;;;1.07;;
31482;SDS011;18103;52.246;8.052;2022-09-09T01:15:55;2.83;;;1.23;;
31482;SDS011;18103;52.246;8.052;2022-09-09T01:18:23;4.50;;;1.33;;
31482;SDS011;18103;52.246;8.052;2022-09-09T01:28:47;2.60;;;1.20;;
31482;SDS011;18103;52.246;8.052;2022-09-09T01:31:17;4.90;;;1.37;;
31482;SDS011;18103;52.246;8.052;2022-09-09T01:34:08;2.30;;;0.80;;
31482;SDS011;18103;52.246;8.052;2022-09-09T01:36:39;3.00;;;1.23;;
31482;SDS011;18103;52.246;8.052;2022-09-09T01:39:07;2.03;;;0.70;;
31482;SDS011;18103;52.246;8.052;2022-09-09T01:41:33;6.03;;;1.63;;
31482;SDS011;18103;52.246;8.052;2022-09-09T01:43:58;3.93;;;1.30;;
31482;SDS011;18103;52.246;8.052;2022-09-09T01:46:23;3.40;;;1.10;;
31482;SDS011;18103;52.246;8.052;2022-09-09T01:48:50;3.00;;;1.07;;
31482;SDS011;18103;52.246;8.052;2022-09-09T01:51:17;3.13;;;0.90;;
31482;SDS011;18103;52.246;8.052;2022-09-09T01:53:43;1.77;;;0.97;;
31482;SDS011;18103;52.246;8.052;2022-09-09T01:56:13;5.27;;;1.47;;
31482;SDS011;18103;52.246;8.052;2022-09-09T01:58:49;4.93;;;1.20;;
31482;SDS011;18103;52.246;8.052;2022-09-09T02:04:02;2.97;;;1.33;;
31482;SDS011;18103;52.246;8.052;2022-09-09T02:06:34;2.93;;;1.20;;
31482;SDS011;18103;52.246;8.052;2022-09-09T02:09:04;1.77;;;1.03;;
31482;SDS011;18103;52.246;8.052;2022-09-09T02:11:31;4.07;;;0.87;;
31482;SDS011;18103;52.246;8.052;2022-09-09T02:14:00;1.83;;;1.03;;
31482;SDS011;18103;52.246;8.052;2022-09-09T02:19:03;5.23;;;1.23;;
31482;SDS011;18103;52.246;8.052;2022-09-09T02:21:33;3.07;;;1.00;;
31482;SDS011;18103;52.246;8.052;2022-09-09T02:24:00;2.17;;;0.97;;
31482;SDS011;18103;52.246;8.052;2022-09-09T02:26:29;2.40;;;0.70;;
31482;SDS011;18103;52.246;8.052;2022-09-09T02:28:58;1.33;;;0.70;;
31482;SDS011;18103;52.246;8.052;2022-09-09T02:31:26;2.50;;;0.93;;
31482;SDS011;18103;52.246;8.052;2022-09-09T02:33:56;3.40;;;1.23;;
31482;SDS011;18103;52.246;8.052;2022-09-09T02:36:25;2.80;;;1.10;;
31482;SDS011;18103;52.246;8.052;2022-09-09T02:38:54;3.83;;;1.30;;
31482;SDS011;18103;52.246;8.052;2022-09-09T02:41:21;10.03;;;2.13;;
31482;SDS011;18103;52.246;8.052;2022-09-09T02:43:50;3.23;;;1.00;;
31482;SDS011;18103;52.246;8.052;2022-09-09T02:49:43;2.97;;;1.17;;
31482;SDS011;18103;52.246;8.052;2022-09-09T02:52:21;3.43;;;1.03;;
31482;SDS011;18103;52.246;8.052;2022-09-09T02:54:55;2.83;;;1.10;;
31482;SDS011;18103;52.246;8.052;2022-09-09T02:57:25;10.70;;;1.47;;
31482;SDS011;18103;52.246;8.052;2022-09-09T02:59:53;1.40;;;1.20;;
31482;SDS011;18103;52.246;8.052;2022-09-09T03:02:21;5.90;;;1.17;;
31482;SDS011;18103;52.246;8.052;2022-09-09T03:04:47;2.40;;;1.20;;
31482;SDS011;18103;52.246;8.052;2022-09-09T03:07:18;4.77;;;1.07;;
31482;SDS011;18103;52.246;8.052;2022-09-09T03:09:47;4.43;;;1.07;;
31482;SDS011;18103;52.246;8.052;2022-09-09T03:12:13;2.87;;;1.20;;
31482;SDS011;18103;52.246;8.052;2022-09-09T03:14:38;4.10;;;1.10;;
31482;SDS011;18103;52.246;8.052;2022-09-09T03:17:04;1.93;;;1.10;;
31482;SDS011;18103;52.246;8.052;2022-09-09T03:19:30;2.87;;;1.00;;
31482;SDS011;18103;52.246;8.052;2022-09-09T03:21:56;1.87;;;1.00;;
31482;SDS011;18103;52.246;8.052;2022-09-09T03:24:22;6.73;;;1.13;;
31482;SDS011;18103;52.246;8.052;2022-09-09T03:26:47;2.80;;;1.30;;
31482;SDS011;18103;52.246;8.052;2022-09-09T03:29:13;1.57;;;1.20;;
31482;SDS011;18103;52.246;8.052;2022-09-09T03:31:42;5.90;;;1.33;;
31482;SDS011;18103;52.246;8.052;2022-09-09T03:34:08;1.60;;;1.03;;
31482;SDS011;18103;52.246;8.052;2022-09-09T03:36:33;3.43;;;1.47;;
31482;SDS011;18103;52.246;8.052;2022-09-09T03:38:59;6.67;;;1.50;;
31482;SDS011;18103;52.246;8.052;2022-09-09T03:41:25;1.90;;;1.10;;
31482;SDS011;18103;52.246;8.052;2022-09-09T03:43:51;2.87;;;1.70;;
31482;SDS011;18103;52.246;8.052;2022-09-09T03:46:17;4.20;;;1.40;;
31482;SDS011;18103;52.246;8.052;2022-09-09T03:48:46;2.60;;;1.30;;
31482;SDS011;18103;52.246;8.052;2022-09-09T03:51:12;2.53;;;1.30;;
31482;SDS011;18103;52.246;8.052;2022-09-09T03:53:37;4.03;;;1.50;;
31482;SDS011;18103;52.246;8.052;2022-09-09T03:56:06;2.70;;;1.27;;
31482;SDS011;18103;52.246;8.052;2022-09-09T03:58:32;2.90;;;1.43;;
31482;SDS011;18103;52.246;8.052;2022-09-09T04:03:28;2.07;;;1.40;;
31482;SDS011;18103;52.246;8.052;2022-09-09T04:05:55;2.50;;;1.40;;
31482;SDS011;18103;52.246;8.052;2022-09-09T04:08:22;3.60;;;1.57;;
31482;SDS011;18103;52.246;8.052;2022-09-09T04:10:50;4.33;;;1.60;;
31482;SDS011;18103;52.246;8.052;2022-09-09T04:13:17;3.53;;;1.60;;
31482;SDS011;18103;52.246;8.052;2022-09-09T04:15:43;2.13;;;1.67;;
31482;SDS011;18103;52.246;8.052;2022-09-09T04:18:14;4.87;;;1.40;;
31482;SDS011;18103;52.246;8.052;2022-09-09T04:20:40;3.27;;;1.40;;
31482;SDS011;18103;52.246;8.052;2022-09-09T04:23:05;4.90;;;1.73;;
31482;SDS011;18103;52.246;8.052;2022-09-09T04:25:30;3.87;;;1.53;;
31482;SDS011;18103;52.246;8.052;2022-09-09T04:27:56;8.20;;;1.90;;
31482;SDS011;18103;52.246;8.052;2022-09-09T04:30:23;3.57;;;1.53;;
31482;SDS011;18103;52.246;8.052;2022-09-09T04:32:49;2.87;;;1.10;;
31482;SDS011;18103;52.246;8.052;2022-09-09T04:35:15;3.10;;;1.53;;
31482;SDS011;18103;52.246;8.052;2022-09-09T04:37:40;2.97;;;1.23;;
31482;SDS011;18103;52.246;8.052;2022-09-09T04:40:06;8.37;;;1.93;;
31482;SDS011;18103;52.246;8.052;2022-09-09T04:42:38;7.10;;;2.13;;
31482;SDS011;18103;52.246;8.052;2022-09-09T04:45:04;6.70;;;2.20;;
31482;SDS011;18103;52.246;8.052;2022-09-09T04:47:31;6.50;;;2.13;;
31482;SDS011;18103;52.246;8.052;2022-09-09T04:49:57;4.63;;;2.00;;
31482;SDS011;18103;52.246;8.052;2022-09-09T04:52:22;4.20;;;1.80;;
31482;SDS011;18103;52.246;8.052;2022-09-09T04:54:48;6.60;;;2.20;;
31482;SDS011;18103;52.246;8.052;2022-09-09T04:57:13;3.60;;;1.90;;
31482;SDS011;18103;52.246;8.052;2022-09-09T04:59:39;5.20;;;2.00;;
31482;SDS011;18103;52.246;8.052;2022-09-09T05:02:04;3.97;;;1.87;;
31482;SDS011;18103;52.246;8.052;2022-09-09T05:04:32;4.57;;;1.70;;
31482;SDS011;18103;52.246;8.052;2022-09-09T05:06:58;5.10;;;1.73;;
31482;SDS011;18103;52.246;8.052;2022-09-09T05:09:23;4.03;;;1.80;;
31482;SDS011;18103;52.246;8.052;2022-09-09T05:11:49;4.77;;;1.30;;
31482;SDS011;18103;52.246;8.052;2022-09-09T05:14:14;1.87;;;1.30;;
31482;SDS011;18103;52.246;8.052;2022-09-09T05:16:39;4.73;;;1.30;;
31482;SDS011;18103;52.246;8.052;2022-09-09T05:19:05;6.50;;;1.63;;
31482;SDS011;18103;52.246;8.052;2022-09-09T05:21:33;2.33;;;1.40;;
31482;SDS011;18103;52.246;8.052;2022-09-09T05:24:04;2.63;;;1.50;;
31482;SDS011;18103;52.246;8.052;2022-09-09T05:26:33;8.30;;;1.40;;
31482;SDS011;18103;52.246;8.052;2022-09-09T05:28:58;5.10;;;1.37;;
31482;SDS011;18103;52.246;8.052;2022-09-09T05:31:25;3.40;;;1.10;;
31482;SDS011;18103;52.246;8.052;2022-09-09T05:33:53;5.73;;;1.20;;
31482;SDS011;18103;52.246;8.052;2022-09-09T05:36:19;5.13;;;1.30;;
31482;SDS011;18103;52.246;8.052;2022-09-09T05:38:46;3.07;;;1.20;;
31482;SDS011;18103;52.246;8.052;2022-09-09T05:41:12;8.10;;;1.50;;
31482;SDS011;18103;52.246;8.052;2022-09-09T05:43:40;2.13;;;1.10;;
31482;SDS011;18103;52.246;8.052;2022-09-09T05:46:08;4.57;;;1.47;;
31482;SDS011;18103;52.246;8.052;2022-09-09T05:48:35;9.50;;;2.07;;
31482;SDS011;18103;52.246;8.052;2022-09-09T05:51:04;5.13;;;1.60;;
31482;SDS011;18103;52.246;8.052;2022-09-09T05:53:34;5.00;;;1.77;;
31482;SDS011;18103;52.246;8.052;2022-09-09T05:56:04;3.13;;;1.27;;
31482;SDS011;18103;52.246;8.052;2022-09-09T05:58:31;3.10;;;1.30;;
31482;SDS011;18103;52.246;8.052;2022-09-09T06:01:17;4.67;;;1.80;;
31482;SDS011;18103;52.246;8.052;2022-09-09T06:03:47;6.50;;;1.30;;
31482;SDS011;18103;52.246;8.052;2022-09-09T06:06:17;6.80;;;1.70;;
31482;SDS011;18103;52.246;8.052;2022-09-09T06:08:47;8.50;;;1.63;;
31482;SDS011;18103;52.246;8.052;2022-09-09T06:13:42;4.33;;;1.40;;
31482;SDS011;18103;52.246;8.052;2022-09-09T06:16:17;6.90;;;1.30;;
31482;SDS011;18103;52.246;8.052;2022-09-09T06:18:44;6.50;;;1.47;;
31482;SDS011;18103;52.246;8.052;2022-09-09T06:21:19;3.13;;;1.10;;
31482;SDS011;18103;52.246;8.052;2022-09-09T06:23:47;1.57;;;0.93;;
31482;SDS011;18103;52.246;8.052;2022-09-09T06:26:14;1.90;;;1.13;;
31482;SDS011;18103;52.246;8.052;2022-09-09T06:28:44;4.67;;;1.20;;
31482;SDS011;18103;52.246;8.052;2022-09-09T06:31:15;2.90;;;1.20;;
31482;SDS011;18103;52.246;8.052;2022-09-09T06:33:42;7.50;;;1.50;;
31482;SDS011;18103;52.246;8.052;2022-09-09T06:36:12;5.40;;;1.50;;
31482;SDS011;18103;52.246;8.052;2022-09-09T06:38:39;6.33;;;1.07;;
31482;SDS011;18103;52.246;8.052;2022-09-09T06:41:05;2.50;;;0.90;;
31482;SDS011;18103;52.246;8.052;2022-09-09T06:43:37;3.37;;;1.20;;
31482;SDS011;18103;52.246;8.052;2022-09-09T06:46:04;3.60;;;0.90;;
31482;SDS011;18103;52.246;8.052;2022-09-09T06:48:40;2.23;;;1.20;;
31482;SDS011;18103;52.246;8.052;2022-09-09T06:53:32;3.67;;;1.23;;
31482;SDS011;18103;52.246;8.052;2022-09-09T06:56:02;7.37;;;1.60;;
31482;SDS011;18103;52.246;8.052;2022-09-09T06:58:44;4.00;;;1.17;;
31482;SDS011;18103;52.246;8.052;2022-09-09T07:01:11;2.87;;;1.10;;
31482;SDS011;18103;52.246;8.052;2022-09-09T07:03:38;5.03;;;1.10;;
31482;SDS011;18103;52.246;8.052;2022-09-09T07:06:04;8.70;;;1.80;;
31482;SDS011;18103;52.246;8.052;2022-09-09T07:08:30;5.60;;;2.17;;
31482;SDS011;18103;52.246;8.052;2022-09-09T07:11:01;9.30;;;1.17;;
31482;SDS011;18103;52.246;8.052;2022-09-09T07:13:29;6.03;;;1.33;;
31482;SDS011;18103;52.246;8.052;2022-09-09T07:15:55;4.43;;;1.60;;
31482;SDS011;18103;52.246;8.052;2022-09-09T07:18:20;8.40;;;1.70;;
31482;SDS011;18103;52.246;8.052;2022-09-09T07:20:54;5.00;;;1.43;;
31482;SDS011;18103;52.246;8.052;2022-09-09T07:23:21;2.60;;;1.10;;
31482;SDS011;18103;52.246;8.052;2022-09-09T07:25:47;4.30;;;1.50;;
31482;SDS011;18103;52.246;8.052;2022-09-09T07:28:13;6.10;;;1.37;;
31482;SDS011;18103;52.246;8.052;2022-09-09T07:30:39;4.90;;;1.00;;
31482;SDS011;18103;52.246;8.052;2022-09-09T07:33:05;7.10;;;1.50;;
31482;SDS011;18103;52.246;8.052;2022-09-09T07:35:31;3.57;;;1.40;;
31482;SDS011;18103;52.246;8.052;2022-09-09T07:37:56;5.60;;;1.40;;
31482;SDS011;18103;52.246;8.052;2022-09-09T07:40:22;5.27;;;1.70;;
31482;SDS011;18103;52.246;8.052;2022-09-09T07:42:47;6.07;;;1.40;;
31482;SDS011;18103;52.246;8.052;2022-09-09T07:45:13;3.13;;;1.13;;
31482;SDS011;18103;52.246;8.052;2022-09-09T07:47:39;4.97;;;1.20;;
31482;SDS011;18103;52.246;8.052;2022-09-09T07:50:07;14.77;;;1.30;;
31482;SDS011;18103;52.246;8.052;2022-09-09T07:52:34;11.27;;;1.33;;
31482;SDS011;18103;52.246;8.052;2022-09-09T07:54:59;5.93;;;1.60;;
31482;SDS011;18103;52.246;8.052;2022-09-09T07:57:27;7.77;;;1.10;;
31482;SDS011;18103;52.246;8.052;2022-09-09T07:59:53;5.57;;;1.40;;
31482;SDS011;18103;52.246;8.052;2022-09-09T08:02:18;7.93;;;1.27;;
31482;SDS011;18103;52.246;8.052;2022-09-09T08:04:45;3.67;;;1.83;;
31482;SDS011;18103;52.246;8.052;2022-09-09T08:07:11;4.40;;;1.47;;
31482;SDS011;18103;52.246;8.052;2022-09-09T08:09:36;3.00;;;1.53;;
31482;SDS011;18103;52.246;8.052;2022-09-09T08:12:02;3.97;;;1.50;;
31482;SDS011;18103;52.246;8.052;2022-09-09T08:14:27;5.60;;;1.33;;
31482;SDS011;18103;52.246;8.052;2022-09-09T08:16:53;7.73;;;1.13;;
31482;SDS011;18103;52.246;8.052;2022-09-09T08:19:19;3.20;;;1.27;;
31482;SDS011;18103;52.246;8.052;2022-09-09T08:21:44;5.53;;;1.40;;
31482;SDS011;18103;52.246;8.052;2022-09-09T08:24:14;6.17;;;1.37;;
31482;SDS011;18103;52.246;8.052;2022-09-09T08:26:41;7.10;;;1.40;;
31482;SDS011;18103;52.246;8.052;2022-09-09T08:29:08;6.70;;;1.83;;
31482;SDS011;18103;52.246;8.052;2022-09-09T08:31:40;8.00;;;1.03;;
31482;SDS011;18103;52.246;8.052;2022-09-09T08:34:09;4.43;;;1.13;;
31482;SDS011;18103;52.246;8.052;2022-09-09T08:36:37;4.90;;;1.40;;
31482;SDS011;18103;52.246;8.052;2022-09-09T08:39:05;10.93;;;1.67;;
31482;SDS011;18103;52.246;8.052;2022-09-09T08:50:15;10.37;;;1.90;;
31482;SDS011;18103;52.246;8.052;2022-09-09T08:53:01;5.30;;;1.50;;
31482;SDS011;18103;52.246;8.052;2022-09-09T08:58:20;2.47;;;1.10;;
31482;SDS011;18103;52.246;8.052;2022-09-09T09:09:26;10.80;;;1.53;;
31482;SDS011;18103;52.246;8.052;2022-09-09T09:12:06;5.43;;;1.17;;
31482;SDS011;18103;52.246;8.052;2022-09-09T09:14:42;8.17;;;1.37;;
31482;SDS011;18103;52.246;8.052;2022-09-09T09:17:10;2.20;;;1.30;;
31482;SDS011;18103;52.246;8.052;2022-09-09T09:19:39;3.90;;;1.20;;
31482;SDS011;18103;52.246;8.052;2022-09-09T09:22:10;12.47;;;2.30;;
31482;SDS011;18103;52.246;8.052;2022-09-09T09:27:13;6.57;;;1.57;;
31482;SDS011;18103;52.246;8.052;2022-09-09T09:29:41;3.30;;;1.70;;
31482;SDS011;18103;52.246;8.052;2022-09-09T09:32:10;6.10;;;2.30;;
31482;SDS011;18103;52.246;8.052;2022-09-09T09:34:41;4.53;;;1.60;;
31482;SDS011;18103;52.246;8.052;2022-09-09T09:37:12;6.13;;;1.43;;
31482;SDS011;18103;52.246;8.052;2022-09-09T09:39:45;3.83;;;1.40;;
31482;SDS011;18103;52.246;8.052;2022-09-09T09:42:11;5.77;;;1.80;;
31482;SDS011;18103;52.246;8.052;2022-09-09T09:44:39;4.43;;;1.63;;
31482;SDS011;18103;52.246;8.052;2022-09-09T09:47:10;11.00;;;2.40;;
31482;SDS011;18103;52.246;8.052;2022-09-09T09:49:37;5.23;;;1.90;;
31482;SDS011;18103;52.246;8.052;2022-09-09T09:52:03;16.27;;;2.57;;
31482;SDS011;18103;52.246;8.052;2022-09-09T09:54:37;4.77;;;2.40;;
31482;SDS011;18103;52.246;8.052;2022-09-09T09:57:08;4.27;;;1.70;;
31482;SDS011;18103;52.246;8.052;2022-09-09T09:59:37;6.37;;;2.40;;
31482;SDS011;18103;52.246;8.052;2022-09-09T10:02:31;6.00;;;2.33;;
31482;SDS011;18103;52.246;8.052;2022-09-09T10:07:41;7.53;;;2.70;;
31482;SDS011;18103;52.246;8.052;2022-09-09T10:10:12;6.87;;;2.47;;
31482;SDS011;18103;52.246;8.052;2022-09-09T10:15:35;7.33;;;1.97;;
31482;SDS011;18103;52.246;8.052;2022-09-09T10:18:08;15.90;;;3.00;;
31482;SDS011;18103;52.246;8.052;2022-09-09T10:23:08;10.57;;;2.33;;
31482;SDS011;18103;52.246;8.052;2022-09-09T10:36:41;5.37;;;2.07;;
31482;SDS011;18103;52.246;8.052;2022-09-09T10:42:05;5.83;;;1.83;;
31482;SDS011;18103;52.246;8.052;2022-09-09T10:52:38;6.43;;;2.03;;
31482;SDS011;18103;52.246;8.052;2022-09-09T10:55:14;8.40;;;1.30;;
31482;SDS011;18103;52.246;8.052;2022-09-09T10:57:47;10.73;;;1.10;;
31482;SDS011;18103;52.246;8.052;2022-09-09T11:00:15;5.60;;;1.13;;
31482;SDS011;18103;52.246;8.052;2022-09-09T11:02:44;4.13;;;1.57;;
31482;SDS011;18103;52.246;8.052;2022-09-09T11:05:22;3.93;;;1.13;;
31482;SDS011;18103;52.246;8.052;2022-09-09T11:08:15;7.50;;;1.47;;
31482;SDS011;18103;52.246;8.052;2022-09-09T11:15:50;6.13;;;1.50;;
31482;SDS011;18103;52.246;8.052;2022-09-09T11:18:25;5.50;;;1.40;;
31482;SDS011;18103;52.246;8.052;2022-09-09T11:20:56;5.23;;;1.50;;
31482;SDS011;18103;52.246;8.052;2022-09-09T11:23:36;5.17;;;1.40;;
31482;SDS011;18103;52.246;8.052;2022-09-09T11:26:06;6.43;;;1.90;;
31482;SDS011;18103;52.246;8.052;2022-09-09T11:29:03;4.63;;;1.30;;
31482;SDS011;18103;52.246;8.052;2022-09-09T11:31:57;4.37;;;1.73;;
31482;SDS011;18103;52.246;8.052;2022-09-09T11:34:37;7.20;;;1.60;;
31482;SDS011;18103;52.246;8.052;2022-09-09T11:40:26;2.97;;;1.43;;
31482;SDS011;18103;52.246;8.052;2022-09-09T11:43:09;4.03;;;1.30;;
31482;SDS011;18103;52.246;8.052;2022-09-09T11:46:02;3.97;;;1.63;;
31482;SDS011;18103;52.246;8.052;2022-09-09T11:48:29;5.83;;;1.50;;
31482;SDS011;18103;52.246;8.052;2022-09-09T11:51:08;4.33;;;1.13;;
31482;SDS011;18103;52.246;8.052;2022-09-09T11:53:36;3.00;;;1.30;;
31482;SDS011;18103;52.246;8.052;2022-09-09T11:56:26;6.83;;;1.27;;
31482;SDS011;18103;52.246;8.052;2022-09-09T11:59:04;4.00;;;1.47;;
31482;SDS011;18103;52.246;8.052;2022-09-09T12:01:40;2.57;;;1.30;;
31482;SDS011;18103;52.246;8.052;2022-09-09T12:09:56;3.73;;;1.50;;
31482;SDS011;18103;52.246;8.052;2022-09-09T12:12:27;4.43;;;1.70;;
31482;SDS011;18103;52.246;8.052;2022-09-09T12:17:43;8.43;;;1.67;;
31482;SDS011;18103;52.246;8.052;2022-09-09T12:25:20;7.03;;;2.03;;
31482;SDS011;18103;52.246;8.052;2022-09-09T12:28:10;2.80;;;2.00;;
31482;SDS011;18103;52.246;8.052;2022-09-09T12:30:46;6.13;;;2.40;;
31482;SDS011;18103;52.246;8.052;2022-09-09T12:33:18;6.03;;;2.07;;
31482;SDS011;18103;52.246;8.052;2022-09-09T12:35:45;4.73;;;2.13;;
31482;SDS011;18103;52.246;8.052;2022-09-09T12:38:20;3.90;;;2.07;;
31482;SDS011;18103;52.246;8.052;2022-09-09T12:40:58;8.63;;;2.60;;
31482;SDS011;18103;52.246;8.052;2022-09-09T12:43:24;5.97;;;2.30;;
31482;SDS011;18103;52.246;8.052;2022-09-09T12:46:03;7.03;;;2.60;;
31482;SDS011;18103;52.246;8.052;2022-09-09T12:48:39;5.77;;;1.90;;
31482;SDS011;18103;52.246;8.052;2022-09-09T12:51:19;10.97;;;2.60;;
31482;SDS011;18103;52.246;8.052;2022-09-09T12:53:51;4.50;;;2.20;;
31482;SDS011;18103;52.246;8.052;2022-09-09T12:56:20;4.97;;;2.00;;
31482;SDS011;18103;52.246;8.052;2022-09-09T12:58:49;5.63;;;2.03;;
31482;SDS011;18103;52.246;8.052;2022-09-09T13:01:26;4.47;;;1.63;;
31482;SDS011;18103;52.246;8.052;2022-09-09T13:03:54;7.10;;;2.63;;
31482;SDS011;18103;52.246;8.052;2022-09-09T13:06:30;5.33;;;1.70;;
31482;SDS011;18103;52.246;8.052;2022-09-09T13:08:57;2.23;;;1.47;;
31482;SDS011;18103;52.246;8.052;2022-09-09T13:11:38;5.53;;;1.83;;
31482;SDS011;18103;52.246;8.052;2022-09-09T13:14:12;5.50;;;2.17;;
31482;SDS011;18103;52.246;8.052;2022-09-09T13:16:54;4.63;;;1.60;;
31482;SDS011;18103;52.246;8.052;2022-09-09T13:19:23;4.10;;;1.90;;
31482;SDS011;18103;52.246;8.052;2022-09-09T13:21:52;4.07;;;1.70;;
31482;SDS011;18103;52.246;8.052;2022-09-09T13:24:26;4.60;;;1.63;;
31482;SDS011;18103;52.246;8.052;2022-09-09T13:26:57;6.83;;;1.80;;
31482;SDS011;18103;52.246;8.052;2022-09-09T13:29:27;7.17;;;1.60;;
31482;SDS011;18103;52.246;8.052;2022-09-09T13:31:52;6.27;;;1.70;;
31482;SDS011;18103;52.246;8.052;2022-09-09T13:34:49;4.97;;;1.50;;
31482;SDS011;18103;52.246;8.052;2022-09-09T13:37:21;2.87;;;1.40;;
31482;SDS011;18103;52.246;8.052;2022-09-09T13:39:52;8.20;;;1.73;;
31482;SDS011;18103;52.246;8.052;2022-09-09T13:42:23;5.13;;;1.50;;
31482;SDS011;18103;52.246;8.052;2022-09-09T13:44:51;3.90;;;1.17;;
31482;SDS011;18103;52.246;8.052;2022-09-09T13:47:18;2.53;;;1.10;;
31482;SDS011;18103;52.246;8.052;2022-09-09T13:49:48;3.77;;;1.23;;
31482;SDS011;18103;52.246;8.052;2022-09-09T13:52:17;3.63;;;0.87;;
31482;SDS011;18103;52.246;8.052;2022-09-09T13:54:47;3.17;;;0.90;;
31482;SDS011;18103;52.246;8.052;2022-09-09T13:57:17;3.17;;;1.00;;
31482;SDS011;18103;52.246;8.052;2022-09-09T13:59:50;9.10;;;0.90;;
31482;SDS011;18103;52.246;8.052;2022-09-09T14:02:16;2.83;;;0.80;;
31482;SDS011;18103;52.246;8.052;2022-09-09T14:04:42;2.77;;;1.10;;
31482;SDS011;18103;52.246;8.052;2022-09-09T14:07:14;6.87;;;0.77;;
31482;SDS011;18103;52.246;8.052;2022-09-09T14:09:41;1.23;;;0.63;;
31482;SDS011;18103;52.246;8.052;2022-09-09T14:12:12;3.43;;;1.03;;
31482;SDS011;18103;52.246;8.052;2022-09-09T14:14:40;2.30;;;0.93;;
31482;SDS011;18103;52.246;8.052;2022-09-09T14:17:06;2.67;;;1.00;;
31482;SDS011;18103;52.246;8.052;2022-09-09T14:19:32;1.80;;;0.90;;
31482;SDS011;18103;52.246;8.052;2022-09-09T14:21:58;2.00;;;0.80;;
31482;SDS011;18103;52.246;8.052;2022-09-09T14:24:23;3.57;;;1.10;;
31482;SDS011;18103;52.246;8.052;2022-09-09T14:26:50;5.37;;;1.70;;
31482;SDS011;18103;52.246;8.052;2022-09-09T14:29:15;2.67;;;1.33;;
31482;SDS011;18103;52.246;8.052;2022-09-09T14:31:41;2.20;;;0.83;;
31482;SDS011;18103;52.246;8.052;2022-09-09T14:34:06;7.23;;;0.80;;
31482;SDS011;18103;52.246;8.052;2022-09-09T14:36:32;4.97;;;1.30;;
31482;SDS011;18103;52.246;8.052;2022-09-09T14:38:58;5.53;;;1.10;;
31482;SDS011;18103;52.246;8.052;2022-09-09T14:41:23;8.13;;;1.30;;
31482;SDS011;18103;52.246;8.052;2022-09-09T14:43:50;6.40;;;1.50;;
31482;SDS011;18103;52.246;8.052;2022-09-09T14:46:16;6.90;;;1.60;;
31482;SDS011;18103;52.246;8.052;2022-09-09T14:48:43;1.93;;;1.10;;
31482;SDS011;18103;52.246;8.052;2022-09-09T14:51:14;3.20;;;1.07;;
31482;SDS011;18103;52.246;8.052;2022-09-09T14:53:53;3.23;;;1.47;;
31482;SDS011;18103;52.246;8.052;2022-09-09T14:56:20;4.53;;;1.37;;
31482;SDS011;18103;52.246;8.052;2022-09-09T14:58:48;2.87;;;1.43;;
31482;SDS011;18103;52.246;8.052;2022-09-09T15:01:15;4.53;;;1.70;;
31482;SDS011;18103;52.246;8.052;2022-09-09T15:03:47;5.90;;;1.80;;
31482;SDS011;18103;52.246;8.052;2022-09-09T15:06:14;8.43;;;1.60;;
31482;SDS011;18103;52.246;8.052;2022-09-09T15:08:41;4.30;;;1.57;;
31482;SDS011;18103;52.246;8.052;2022-09-09T15:11:08;4.00;;;1.23;;
31482;SDS011;18103;52.246;8.052;2022-09-09T15:13:38;3.33;;;1.17;;
31482;SDS011;18103;52.246;8.052;2022-09-09T15:18:31;6.50;;;1.43;;
31482;SDS011;18103;52.246;8.052;2022-09-09T15:20:58;4.00;;;1.30;;
31482;SDS011;18103;52.246;8.052;2022-09-09T15:23:25;2.30;;;1.40;;
31482;SDS011;18103;52.246;8.052;2022-09-09T15:25:53;1.60;;;1.27;;
31482;SDS011;18103;52.246;8.052;2022-09-09T15:28:20;3.93;;;1.43;;
31482;SDS011;18103;52.246;8.052;2022-09-09T15:30:50;4.50;;;1.50;;
31482;SDS011;18103;52.246;8.052;2022-09-09T15:33:17;8.67;;;1.50;;
31482;SDS011;18103;52.246;8.052;2022-09-09T15:35:43;6.53;;;1.50;;
31482;SDS011;18103;52.246;8.052;2022-09-09T15:38:08;2.10;;;1.47;;
31482;SDS011;18103;52.246;8.052;2022-09-09T15:40:34;3.63;;;1.10;;
31482;SDS011;18103;52.246;8.052;2022-09-09T15:42:59;2.30;;;0.80;;
31482;SDS011;18103;52.246;8.052;2022-09-09T15:45:24;2.10;;;0.90;;
31482;SDS011;18103;52.246;8.052;2022-09-09T15:47:50;4.63;;;0.87;;
31482;SDS011;18103;52.246;8.052;2022-09-09T15:50:16;1.70;;;1.00;;
31482;SDS011;18103;52.246;8.052;2022-09-09T15:52:42;4.27;;;0.83;;
31482;SDS011;18103;52.246;8.052;2022-09-09T15:55:10;1.80;;;0.93;;
31482;SDS011;18103;52.246;8.052;2022-09-09T15:57:35;3.40;;;0.90;;
31482;SDS011;18103;52.246;8.052;2022-09-09T16:00:04;1.83;;;0.80;;
31482;SDS011;18103;52.246;8.052;2022-09-09T16:02:30;3.77;;;1.03;;
31482;SDS011;18103;52.246;8.052;2022-09-09T16:04:56;1.00;;;0.63;;
31482;SDS011;18103;52.246;8.052;2022-09-09T16:07:26;2.27;;;0.97;;
31482;SDS011;18103;52.246;8.052;2022-09-09T16:09:51;3.80;;;1.03;;
31482;SDS011;18103;52.246;8.052;2022-09-09T16:12:17;6.17;;;1.20;;
31482;SDS011;18103;52.246;8.052;2022-09-09T16:14:43;2.73;;;1.07;;
31482;SDS011;18103;52.246;8.052;2022-09-09T16:17:09;2.50;;;1.00;;
31482;SDS011;18103;52.246;8.052;2022-09-09T16:19:36;1.07;;;0.70;;
31482;SDS011;18103;52.246;8.052;2022-09-09T16:22:01;0.70;;;0.70;;
31482;SDS011;18103;52.246;8.052;2022-09-09T16:24:27;3.93;;;1.10;;
31482;SDS011;18103;52.246;8.052;2022-09-09T16:26:53;7.40;;;1.10;;
31482;SDS011;18103;52.246;8.052;2022-09-09T16:29:20;1.67;;;0.93;;
31482;SDS011;18103;52.246;8.052;2022-09-09T16:31:47;2.47;;;0.93;;
31482;SDS011;18103;52.246;8.052;2022-09-09T16:34:13;5.90;;;1.27;;
31482;SDS011;18103;52.246;8.052;2022-09-09T16:36:40;1.20;;;0.87;;
31482;SDS011;18103;52.246;8.052;2022-09-09T16:39:09;1.97;;;0.80;;
31482;SDS011;18103;52.246;8.052;2022-09-09T16:41:39;2.57;;;0.80;;
31482;SDS011;18103;52.246;8.052;2022-09-09T16:44:07;2.30;;;1.00;;
31482;SDS011;18103;52.246;8.052;2022-09-09T16:46:41;2.57;;;0.63;;
31482;SDS011;18103;52.246;8.052;2022-09-09T16:49:09;6.03;;;1.10;;
31482;SDS011;18103;52.246;8.052;2022-09-09T16:51:37;1.97;;;0.90;;
31482;SDS011;18103;52.246;8.052;2022-09-09T16:54:05;2.23;;;0.80;;
31482;SDS011;18103;52.246;8.052;2022-09-09T16:56:35;2.83;;;1.00;;
31482;SDS011;18103;52.246;8.052;2022-09-09T16:59:06;3.17;;;0.83;;
31482;SDS011;18103;52.246;8.052;2022-09-09T17:01:34;2.17;;;0.77;;
31482;SDS011;18103;52.246;8.052;2022-09-09T17:04:06;1.20;;;0.80;;